AirNav   Everest Fuels
 
 947 users online  

50CO Castle Rock Adventist Health Campus Heliport
Castle Rock, Colorado, USA

GOING TO CASTLE ROCK?


FAA INFORMATION EFFECTIVE 08 SEPTEMBER 2022

Location

FAA Identifier: 50CO
Lat/Long: 39-24-22.0000N 104-53-03.0000W
39-24.366667N 104-53.050000W
39.4061111,-104.8841667
(estimated)
Elevation: 6134 ft. / 1870 m (estimated)
From city: 2 miles SE of CASTLE ROCK, CO
Time zone: UTC -6 (UTC -7 during Standard Time)
Zip code: 80108

Heliport Operations

Heliport use: Private use. Permission required prior to landing
Activation date: 02/2012
Control tower: no
ARTCC: DENVER CENTER
FSS: DENVER FLIGHT SERVICE STATION
Attendance: CONTINUOUS
Wind indicator: lighted
Segmented circle: no

Heliport Communications

WX ASOS at APA (10 nm N): PHONE 720-873-2799

Nearby radio navigation aids

VOR radial/distance  VOR name  Freq  Var
FQFr205/20.9FALCON VORTAC116.3011E
DENr195/26.5DENVER VOR/DME117.9008E
BRKr329/30.1BLACK FOREST VOR/DME112.5008E
DVVr194/31.7MILE HIGH VORTAC114.7008E
BJCr148/32.6JEFFCO VOR/DME115.4011E

Heliport Services

Runway Information

Helipad H1

Dimensions: 40 x 40 ft. / 12 x 12 m
Surface: concrete, in good condition
Latitude: 39-24.366667N
Longitude: 104-53.050000W
Elevation: 6134.0 ft.
Traffic pattern: leftleft

Heliport Ownership and Management from official FAA records

Ownership: Privately-owned
Owner: PORTERCARE ADVENTIST HEALTH SYSTEM
2350 MEADOWS BLVD
CASTLE ROCK, CO 80109
Phone 720-455-2500
Manager: ERIC SCHWEITZER
2350 MEADOWS BLVD
CASTLE ROCK, CO 80109
Phone 720-455-2500

Additional Remarks

FOR CD CTC DENVER APCH AT 303-342-1916.

Instrument Procedures

There are no published instrument procedures at 50CO.

Some nearby airports with instrument procedures:

KAPA - Centennial Airport (10 nm N)
KBKF - Buckley Space Force Base (19 nm N)
KCFO - Colorado Air and Space Port Airport (28 nm NE)
KDEN - Denver International Airport (29 nm N)
KBJC - Rocky Mountain Metro Airport (32 nm N)
 
Loc | Ops | Rwys | IFR | FBO | Links
Com | Nav | Svcs | Stats | Notes

AirBoss

 
Aerial photo
No photo
 
Airport distance calculator
Flying to Castle Rock Adventist Health Campus Heliport? Find the distance to fly.

From to 50CO

Sunrise and sunset
Times for 24-Sep-2022
 Local
(UTC-6)
 Zulu
(UTC)
Morning civil twilight06:2312:23
Sunrise06:5012:50
Sunset18:5300:53
Evening civil twilight19:2001:20

Current date and time
Zulu (UTC)  25-Sep-2022 00:05:12
Local (UTC-6)  24-Sep-2022 18:05:12
 
METAR
KAPA 
10nm N 
242353Z 03004KT 10SM CLR 25/M04 A3021 RMK AO2 SLP179 T02501044 10267 20228 53002
KMNH 
16nm SE 
242335Z AUTO 03009KT 10SM CLR 22/M06 A3031 RMK AO2
KBKF 
20nm N 
242358Z 06010KT 10SM CLR 25/M03 A3021 RMK AO2A SLP171 T02521033 10277 20234 53003
TAF
KAPA 
10nm N 
241740Z 2418/2518 VRB05KT P6SM FEW100 FEW220 FM242200 08006KT P6SM FEW220 FM250700 01006KT P6SM FEW220 FM251100 19006KT P6SM SKC FM251700 04006KT P6SM SKC
KBKF 
20nm N 
241700Z 2417/2523 VRB06KT 9999 SKC 510023 QNH3021INS TX24/2422Z TN07/2512Z
NOTAMs
Click for the latest NOTAMs
NOTAMs are issued by the DoD/FAA and will open in a separate window not controlled by AirNav.

 

 
 

Would you like to see your business listed on this page?

 If your business provides an interesting product or service to pilots, flight crews, aircraft, or users of the Castle Rock Adventist Health Campus Heliport, you should consider listing it here.  To start the listing process, click on the button below
 
Add a business
 

Other Pages about Castle Rock Adventist Health Campus Heliport

Update a link
 
Copyright © AirNav, LLC. All rights reserved. Privacy Policy  Contact